Time;durP1;ratioP1;P1;durP2;ratioP2;P2;SDS_P1;SDS_P2;PMS_P1;PMS_P2;Temp;Humidity;BMP_temperature;BMP_pressure;BME280_temperature;BME280_humidity;BME280_pressure;Samples;Min_cycle;Max_cycle;Signal;HPM_P1;HPM_P2
2023/09/04 00:02:37;;;;;;;3.58;2.25;;;17.10;99.90;;;;;;10450705;28;20628;-86
2023/09/04 00:07:40;;;;;;;1.85;1.60;;;17.10;99.90;;;;;;10449552;28;20274;-86
2023/09/04 00:12:43;;;;;;;6.63;3.10;;;17.10;99.90;;;;;;10450011;28;20284;-86
2023/09/04 00:17:49;;;;;;;8.65;2.67;;;17.20;99.90;;;;;;10449717;28;20265;-86
2023/09/04 00:22:52;;;;;;;3.35;2.15;;;17.20;99.90;;;;;;10449450;28;20234;-86
2023/09/04 00:27:56;;;;;;;3.33;1.77;;;17.20;99.90;;;;;;10479883;28;20284;-86
2023/09/04 00:32:59;;;;;;;3.30;2.00;;;17.20;99.90;;;;;;10490424;28;20760;-86
2023/09/04 00:38:02;;;;;;;2.30;1.85;;;17.20;99.90;;;;;;10478209;28;20280;-86
2023/09/04 00:43:04;;;;;;;2.30;1.70;;;17.10;99.90;;;;;;10480328;28;20242;-86
2023/09/04 00:48:08;;;;;;;4.13;2.30;;;17.00;99.90;;;;;;10488841;28;20776;-86
2023/09/04 00:53:11;;;;;;;2.35;1.95;;;17.10;99.90;;;;;;10490123;28;20668;-86
2023/09/04 00:58:13;;;;;;;2.15;1.67;;;17.00;99.90;;;;;;10454060;28;20326;-86
2023/09/04 01:03:17;;;;;;;3.03;1.50;;;17.00;99.90;;;;;;10449095;28;20282;-86
2023/09/04 01:08:20;;;;;;;4.18;2.35;;;16.90;99.90;;;;;;10448300;28;20320;-86
2023/09/04 01:13:49;;;;;;;5.00;2.28;;;16.80;99.90;;;;;;10448198;28;20238;-86
2023/09/04 01:18:52;;;;;;;2.95;2.38;;;16.80;99.90;;;;;;10448542;28;20666;-86
2023/09/04 01:23:54;;;;;;;3.53;2.45;;;16.40;99.90;;;;;;10446447;28;20686;-86
2023/09/04 01:29:07;;;;;;;3.35;2.40;;;16.00;99.90;;;;;;10447396;28;20323;-87
2023/09/04 01:34:15;;;;;;;3.65;2.88;;;15.90;99.90;;;;;;10445928;28;20296;-87
2023/09/04 01:39:19;;;;;;;3.33;1.95;;;15.70;99.90;;;;;;10405860;28;20235;-86
2023/09/04 01:44:22;;;;;;;6.38;2.22;;;15.50;99.90;;;;;;10412539;28;20243;-86
2023/09/04 01:49:25;;;;;;;4.90;2.22;;;15.30;99.90;;;;;;10428640;28;20317;-86
2023/09/04 01:54:27;;;;;;;1.92;1.73;;;15.20;99.90;;;;;;10413647;28;20656;-87
2023/09/04 01:59:31;;;;;;;4.07;2.45;;;15.40;99.90;;;;;;10410935;28;20923;-86
2023/09/04 02:04:34;;;;;;;3.85;2.15;;;15.20;99.90;;;;;;10442549;28;20256;-86
2023/09/04 02:09:37;;;;;;;3.63;2.25;;;15.10;99.90;;;;;;10452764;28;20340;-87
2023/09/04 02:14:39;;;;;;;4.10;2.28;;;14.90;99.90;;;;;;10467997;28;20233;-86
2023/09/04 02:19:46;;;;;;;3.75;2.30;;;14.70;99.90;;;;;;10493456;28;20245;-87
2023/09/04 02:24:49;;;;;;;2.75;2.25;;;14.70;99.90;;;;;;10477583;28;20218;-87
2023/09/04 02:29:51;;;;;;;6.25;2.58;;;14.70;99.90;;;;;;10450908;28;20284;-87
2023/09/04 02:34:55;;;;;;;3.83;2.53;;;14.80;99.90;;;;;;10410760;28;20239;-87
2023/09/04 02:39:57;;;;;;;2.42;2.22;;;14.90;99.90;;;;;;10412054;28;20223;-86
2023/09/04 02:45:01;;;;;;;4.18;2.42;;;14.90;99.90;;;;;;10411663;28;20235;-86
2023/09/04 02:50:05;;;;;;;2.58;1.75;;;15.10;99.90;;;;;;10493392;28;20222;-86
2023/09/04 02:55:09;;;;;;;3.05;2.60;;;15.20;99.90;;;;;;10491614;28;20234;-86
2023/09/04 03:00:13;;;;;;;3.75;2.55;;;15.10;99.90;;;;;;10467100;28;20638;-87
2023/09/04 03:05:16;;;;;;;3.78;1.90;;;15.10;99.90;;;;;;10493776;28;20246;-86
2023/09/04 03:10:18;;;;;;;1.90;1.40;;;15.10;99.90;;;;;;10491787;28;20311;-86
2023/09/04 03:15:21;;;;;;;4.53;1.80;;;15.30;99.90;;;;;;10469366;28;20238;-87
2023/09/04 03:20:24;;;;;;;5.13;2.47;;;15.50;99.90;;;;;;10478645;28;20210;-86
2023/09/04 03:25:31;;;;;;;2.13;1.92;;;15.60;99.90;;;;;;10485928;28;20258;-87
2023/09/04 03:30:34;;;;;;;4.13;2.28;;;15.60;99.90;;;;;;10444844;28;20211;-86
2023/09/04 03:35:39;;;;;;;2.47;1.98;;;15.50;99.90;;;;;;10425054;28;20258;-86
2023/09/04 03:40:42;;;;;;;2.63;1.95;;;15.40;99.90;;;;;;10424667;28;20294;-86
2023/09/04 03:45:44;;;;;;;3.08;2.78;;;15.30;99.90;;;;;;10433385;28;20249;-89
2023/09/04 03:50:47;;;;;;;3.85;2.88;;;15.10;99.90;;;;;;10491265;28;20643;-87
2023/09/04 03:55:51;;;;;;;2.60;2.35;;;14.80;99.90;;;;;;10465004;28;20608;-87
2023/09/04 04:00:59;;;;;;;3.35;2.70;;;14.50;99.90;;;;;;10455435;28;20244;-87
2023/09/04 04:06:13;;;;;;;2.53;1.83;;;14.40;99.90;;;;;;10447697;28;20293;-87
2023/09/04 04:11:16;;;;;;;3.85;2.25;;;14.30;99.90;;;;;;10449238;28;20362;-86
2023/09/04 04:16:19;;;;;;;4.97;2.50;;;14.40;99.90;;;;;;10478523;28;20241;-87
2023/09/04 04:21:22;;;;;;;3.67;2.60;;;14.20;99.90;;;;;;10488630;28;20226;-87
2023/09/04 04:26:24;;;;;;;3.75;2.10;;;14.10;99.90;;;;;;10466324;28;20258;-87
2023/09/04 04:31:27;;;;;;;4.40;2.65;;;14.20;99.90;;;;;;10432443;28;20265;-86
2023/09/04 04:36:30;;;;;;;3.78;2.30;;;14.30;99.90;;;;;;10442149;28;20664;-87
2023/09/04 04:41:33;;;;;;;4.05;2.45;;;14.30;99.90;;;;;;10449152;28;20289;-87
2023/09/04 04:46:38;;;;;;;4.80;2.20;;;14.30;99.90;;;;;;10441666;28;20274;-86
2023/09/04 04:51:40;;;;;;;2.03;1.85;;;14.30;99.90;;;;;;10447933;28;20226;-86
2023/09/04 04:56:43;;;;;;;4.30;2.13;;;14.50;99.90;;;;;;10447434;28;20296;-87
2023/09/04 05:01:46;;;;;;;2.90;2.58;;;14.70;99.90;;;;;;10427481;28;20235;-86
2023/09/04 05:06:49;;;;;;;2.00;1.85;;;14.90;99.90;;;;;;10447197;28;20654;-86
2023/09/04 05:11:52;;;;;;;3.72;2.53;;;15.00;99.90;;;;;;10447081;28;20234;-87
2023/09/04 05:16:55;;;;;;;5.63;2.85;;;15.10;99.90;;;;;;10451786;28;20292;-87
2023/09/04 05:21:58;;;;;;;4.95;2.75;;;15.50;99.90;;;;;;10455404;28;20238;-87
2023/09/04 05:27:03;;;;;;;4.10;2.70;;;16.00;99.90;;;;;;10453264;28;20255;-87
2023/09/04 05:32:05;;;;;;;4.50;2.65;;;16.20;99.90;;;;;;10454456;28;20596;-87
2023/09/04 05:37:08;;;;;;;3.30;2.40;;;16.40;99.90;;;;;;10454054;28;20679;-87
2023/09/04 05:42:11;;;;;;;5.03;2.78;;;16.60;99.90;;;;;;10497083;28;20234;-87
2023/09/04 05:47:13;;;;;;;5.30;2.42;;;16.80;99.90;;;;;;10473461;28;20266;-87
2023/09/04 05:52:16;;;;;;;5.40;2.95;;;16.90;99.90;;;;;;10454723;28;20602;-87
2023/09/04 05:57:19;;;;;;;3.35;2.67;;;17.00;99.90;;;;;;10432230;28;20207;-87
2023/09/04 06:02:21;;;;;;;7.07;2.33;;;17.20;99.90;;;;;;10421616;28;20230;-87
2023/09/04 06:07:24;;;;;;;5.53;2.63;;;17.40;99.90;;;;;;10449551;28;20664;-86
2023/09/04 06:12:26;;;;;;;5.03;3.22;;;17.60;99.90;;;;;;10462962;28;20242;-87
2023/09/04 06:17:29;;;;;;;9.15;2.67;;;17.70;99.90;;;;;;10494061;28;20780;-88
2023/09/04 06:22:31;;;;;;;3.63;2.33;;;17.60;99.90;;;;;;10429300;28;20238;-87
2023/09/04 06:27:34;;;;;;;3.42;2.10;;;17.80;99.90;;;;;;10450135;28;20258;-87
2023/09/04 06:32:37;;;;;;;3.92;2.42;;;18.10;99.90;;;;;;10440739;28;20653;-87
2023/09/04 06:37:40;;;;;;;2.38;2.17;;;18.10;99.90;;;;;;10411265;28;20239;-87
2023/09/04 06:42:43;;;;;;;5.13;2.60;;;18.30;99.90;;;;;;10412721;28;20297;-87
2023/09/04 06:47:45;;;;;;;2.88;2.30;;;18.40;99.90;;;;;;10416046;28;20238;-84
2023/09/04 06:52:48;;;;;;;3.70;2.42;;;18.30;99.90;;;;;;10489617;28;20614;-85
2023/09/04 06:57:51;;;;;;;8.10;2.78;;;18.30;99.90;;;;;;10492545;28;20714;-86
2023/09/04 07:02:53;;;;;;;8.77;2.88;;;18.40;99.90;;;;;;10493071;28;20283;-85
2023/09/04 07:07:56;;;;;;;4.40;2.38;;;18.30;99.90;;;;;;10492332;28;20315;-85
2023/09/04 07:13:00;;;;;;;7.88;2.45;;;18.40;99.90;;;;;;10492391;28;20307;-86
2023/09/04 07:18:03;;;;;;;5.38;2.60;;;18.50;99.90;;;;;;10493478;28;20306;-85
2023/09/04 07:23:06;;;;;;;7.60;2.65;;;18.60;99.90;;;;;;10493732;28;20288;-86
2023/09/04 07:28:22;;;;;;;5.13;2.70;;;18.60;99.90;;;;;;10491415;28;20314;-86
2023/09/04 07:33:24;;;;;;;3.13;2.50;;;18.70;99.90;;;;;;10488605;28;20264;-85
2023/09/04 07:38:27;;;;;;;7.47;2.20;;;18.70;99.90;;;;;;10475160;28;20227;-87
2023/09/04 07:43:33;;;;;;;5.72;2.38;;;19.00;99.90;;;;;;10489821;28;20238;-86
2023/09/04 07:48:35;;;;;;;5.50;2.35;;;19.10;99.90;;;;;;10418478;28;20666;-87
2023/09/04 07:53:38;;;;;;;3.30;2.00;;;19.30;99.90;;;;;;10448818;28;20230;-86
2023/09/04 07:58:40;;;;;;;1.75;1.52;;;19.40;99.90;;;;;;10448936;28;20242;-86
2023/09/04 08:03:43;;;;;;;3.30;1.90;;;19.90;99.90;;;;;;10450061;28;20261;-87
2023/09/04 08:08:46;;;;;;;3.53;1.85;;;20.10;99.90;;;;;;10490260;28;20783;-87
2023/09/04 08:13:48;;;;;;;3.55;1.75;;;20.20;99.90;;;;;;10489028;28;20242;-86
2023/09/04 08:18:51;;;;;;;3.92;1.70;;;20.50;99.90;;;;;;10490314;28;20263;-87
2023/09/04 08:23:53;;;;;;;2.40;1.60;;;20.80;99.30;;;;;;10475170;28;20253;-87
2023/09/04 08:28:56;;;;;;;2.38;1.88;;;21.00;99.00;;;;;;10452363;28;20259;-87
2023/09/04 08:33:59;;;;;;;3.50;1.83;;;21.00;98.10;;;;;;10408379;28;20346;-88
2023/09/04 08:39:02;;;;;;;2.92;1.70;;;21.10;95.90;;;;;;10408397;28;20239;-87
2023/09/04 08:44:08;;;;;;;3.10;1.95;;;21.30;96.70;;;;;;10407470;28;20261;-87
2023/09/04 08:49:11;;;;;;;1.80;1.33;;;21.30;96.20;;;;;;10407936;28;20293;-87
2023/09/04 08:54:14;;;;;;;2.80;1.80;;;21.60;96.60;;;;;;10415772;28;21133;-86
2023/09/04 08:59:17;;;;;;;3.75;2.08;;;21.70;95.90;;;;;;10094750;28;9999642;-87
2023/09/04 09:04:21;;;;;;;2.22;1.20;;;21.60;91.90;;;;;;10475322;28;20238;-86
2023/09/04 09:09:25;;;;;;;3.10;1.30;;;21.60;94.20;;;;;;10451902;28;20270;-87
2023/09/04 09:14:28;;;;;;;2.70;1.50;;;21.60;95.70;;;;;;10485302;28;20238;-87
2023/09/04 09:19:35;;;;;;;7.40;1.63;;;21.80;94.70;;;;;;10452861;28;20238;-87
2023/09/04 09:24:48;;;;;;;1.80;1.63;;;21.90;94.30;;;;;;10453450;28;20235;-87
2023/09/04 09:29:51;;;;;;;2.42;1.40;;;22.00;94.10;;;;;;10442400;28;20255;-87
2023/09/04 09:34:56;;;;;;;2.53;1.50;;;22.10;96.30;;;;;;10426116;28;20231;-87
2023/09/04 09:39:59;;;;;;;4.97;1.83;;;22.20;94.40;;;;;;10410815;28;20247;-87
2023/09/04 09:45:05;;;;;;;3.97;1.95;;;22.00;92.70;;;;;;10411691;28;20251;-87
2023/09/04 09:50:08;;;;;;;2.35;1.63;;;22.00;93.10;;;;;;10451138;28;20246;-87
2023/09/04 09:55:24;;;;;;;1.27;1.13;;;22.20;91.90;;;;;;10434148;28;20285;-88
2023/09/04 10:00:27;;;;;;;1.77;1.50;;;22.30;93.30;;;;;;10463530;28;20304;-87
2023/09/04 10:05:32;;;;;;;1.73;1.15;;;22.60;91.80;;;;;;10450715;28;20238;-87
2023/09/04 10:10:39;;;;;;;1.60;1.33;;;22.70;93.80;;;;;;10446920;28;20328;-87
2023/09/04 10:15:46;;;;;;;2.03;1.58;;;22.40;91.00;;;;;;10466494;28;20650;-85
2023/09/04 10:20:50;;;;;;;3.08;1.58;;;22.40;93.80;;;;;;10453051;28;20238;-88
2023/09/04 10:25:54;;;;;;;1.35;1.10;;;;;;;;;;10456920;28;20625;-87
2023/09/04 10:30:59;;;;;;;2.30;1.10;;;22.90;93.20;;;;;;10449562;28;20261;-88
2023/09/04 10:36:03;;;;;;;2.72;1.25;;;23.00;91.70;;;;;;10476864;28;20257;-88
2023/09/04 10:41:07;;;;;;;3.22;1.40;;;22.70;90.90;;;;;;10452545;28;20231;-88
2023/09/04 10:46:11;;;;;;;1.55;1.15;;;22.70;91.80;;;;;;10482160;28;20690;-88
2023/09/04 10:51:31;;;;;;;2.15;1.50;;;22.80;92.00;;;;;;10462192;28;20258;-88
2023/09/04 10:56:54;;;;;;;2.30;1.63;;;23.00;91.10;;;;;;10451977;28;20733;-87
2023/09/04 11:01:57;;;;;;;1.50;1.10;;;23.00;89.30;;;;;;10437439;28;20629;-88
2023/09/04 11:07:19;;;;;;;3.08;1.40;;;23.00;91.90;;;;;;10425726;28;20219;-88
2023/09/04 11:12:23;;;;;;;2.28;1.52;;;23.20;91.30;;;;;;10423456;28;20252;-88
2023/09/04 11:17:32;;;;;;;3.33;1.67;;;23.10;91.40;;;;;;10448886;28;20246;-87
2023/09/04 11:22:35;;;;;;;3.22;1.42;;;22.90;90.40;;;;;;10444493;28;20671;-87
2023/09/04 11:27:37;;;;;;;2.13;1.50;;;22.90;90.50;;;;;;10449942;28;20250;-87
2023/09/04 11:32:40;;;;;;;3.15;1.48;;;22.90;88.20;;;;;;10449469;28;20242;-87
2023/09/04 11:37:43;;;;;;;5.32;1.50;;;23.10;90.30;;;;;;10450848;28;20226;-86
2023/09/04 11:42:46;;;;;;;3.00;1.65;;;23.30;88.60;;;;;;10449676;28;20235;-87
2023/09/04 11:47:50;;;;;;;2.38;1.88;;;23.30;88.40;;;;;;10450649;28;20258;-87
2023/09/04 11:52:53;;;;;;;2.50;1.23;;;23.40;87.80;;;;;;10450280;28;20238;-87
2023/09/04 11:57:56;;;;;;;2.42;2.00;;;23.30;82.60;;;;;;10432590;28;20273;-87
2023/09/04 12:02:59;;;;;;;1.45;1.30;;;23.20;87.00;;;;;;10449159;28;20218;-87
2023/09/04 12:08:03;;;;;;;4.47;1.45;;;23.50;89.20;;;;;;10450563;28;20292;-87
2023/09/04 12:13:08;;;;;;;2.08;1.88;;;23.70;85.20;;;;;;10450532;28;20238;-87
2023/09/04 12:18:12;;;;;;;1.73;1.40;;;23.60;86.00;;;;;;10450579;28;20230;-87
2023/09/04 12:23:14;;;;;;;1.83;1.58;;;23.30;85.60;;;;;;10448198;28;20222;-86
2023/09/04 12:28:17;;;;;;;3.60;1.30;;;23.20;87.40;;;;;;10464880;28;20254;-86
2023/09/04 12:33:20;;;;;;;1.85;1.45;;;23.30;87.60;;;;;;10408607;28;20661;-87
2023/09/04 12:38:23;;;;;;;4.70;1.63;;;23.40;84.70;;;;;;10408583;28;20239;-87
2023/09/04 12:43:25;;;;;;;3.83;1.17;;;23.30;83.60;;;;;;10430168;28;20626;-86
2023/09/04 12:48:28;;;;;;;2.53;1.60;;;23.20;90.20;;;;;;10425392;28;20285;-86
2023/09/04 12:53:31;;;;;;;3.05;1.58;;;23.20;87.90;;;;;;10432869;28;20234;-86
2023/09/04 12:58:34;;;;;;;3.40;1.75;;;23.30;88.00;;;;;;10439720;28;20292;-86
2023/09/04 13:03:36;;;;;;;3.22;1.45;;;23.40;86.80;;;;;;10420041;28;20299;-86
2023/09/04 13:08:40;;;;;;;5.07;1.63;;;23.50;87.80;;;;;;10472686;28;20262;-86
2023/09/04 13:13:42;;;;;;;2.15;1.80;;;23.60;86.40;;;;;;10423316;28;20670;-86
2023/09/04 13:18:45;;;;;;;2.42;1.35;;;23.80;86.10;;;;;;10447997;28;20239;-86
2023/09/04 13:23:48;;;;;;;3.80;1.50;;;24.00;87.00;;;;;;10447394;28;20261;-86
2023/09/04 13:28:50;;;;;;;3.55;1.42;;;24.00;85.60;;;;;;10447445;28;20308;-86
2023/09/04 13:33:53;;;;;;;3.95;1.73;;;23.90;86.00;;;;;;10447432;28;20611;-87
2023/09/04 13:38:55;;;;;;;1.83;1.70;;;24.10;86.00;;;;;;10452633;28;20280;-86
2023/09/04 13:43:58;;;;;;;2.72;1.40;;;24.30;86.80;;;;;;10479642;28;20637;-87
2023/09/04 13:49:00;;;;;;;2.35;2.15;;;24.30;86.40;;;;;;10494576;28;20503;-87
2023/09/04 13:54:03;;;;;;;2.58;1.48;;;24.30;86.30;;;;;;10438663;28;20282;-86
2023/09/04 13:59:07;;;;;;;4.68;2.08;;;24.40;86.40;;;;;;10424968;28;20300;-86
2023/09/04 14:04:09;;;;;;;2.00;1.70;;;24.40;85.20;;;;;;10419475;28;20239;-86
2023/09/04 14:09:12;;;;;;;2.25;1.73;;;24.20;83.10;;;;;;10413153;28;20710;-86
2023/09/04 14:14:15;;;;;;;4.07;2.05;;;24.10;85.90;;;;;;10413502;28;20231;-86
2023/09/04 14:19:18;;;;;;;3.17;1.60;;;24.10;86.40;;;;;;10460010;28;20230;-86
2023/09/04 14:24:21;;;;;;;2.17;1.60;;;24.00;85.40;;;;;;10494404;28;20300;-86
2023/09/04 14:29:23;;;;;;;2.78;1.60;;;23.90;85.60;;;;;;10493686;28;20253;-86
2023/09/04 14:34:27;;;;;;;2.83;2.53;;;23.90;86.60;;;;;;10469817;28;20314;-86
2023/09/04 14:39:29;;;;;;;2.15;1.63;;;23.90;85.60;;;;;;10451769;28;20963;-86
2023/09/04 14:44:32;;;;;;;3.45;1.70;;;23.90;84.00;;;;;;10452058;28;20716;-86
2023/09/04 14:49:34;;;;;;;3.95;1.90;;;23.90;82.90;;;;;;10450980;28;20254;-86
2023/09/04 14:54:37;;;;;;;1.98;1.75;;;23.90;84.10;;;;;;10452080;28;20228;-86
2023/09/04 14:59:41;;;;;;;2.33;1.58;;;23.90;85.70;;;;;;10447033;28;20239;-86
2023/09/04 15:04:43;;;;;;;2.97;1.30;;;23.90;83.80;;;;;;10480891;28;20267;-86
2023/09/04 15:09:47;;;;;;;3.17;1.20;;;23.90;90.00;;;;;;10462544;28;20262;-86
2023/09/04 15:14:49;;;;;;;2.15;1.23;;;23.90;91.00;;;;;;10447789;28;20231;-87
2023/09/04 15:19:52;;;;;;;2.30;1.80;;;23.90;87.30;;;;;;10410833;28;20278;-87
2023/09/04 15:24:55;;;;;;;2.33;1.73;;;23.80;90.50;;;;;;10410584;28;20273;-87
2023/09/04 15:29:57;;;;;;;3.75;1.98;;;23.90;90.20;;;;;;10425135;28;20258;-87
2023/09/04 15:35:00;;;;;;;2.20;2.00;;;23.90;90.70;;;;;;10449060;28;20617;-87
2023/09/04 15:40:04;;;;;;;5.13;1.88;;;23.80;91.50;;;;;;10443036;28;20238;-87
2023/09/04 15:45:11;;;;;;;3.17;2.30;;;23.70;91.30;;;;;;10450652;28;20243;-87
2023/09/04 15:50:13;;;;;;;5.20;2.08;;;23.60;91.10;;;;;;10451280;28;20652;-87
2023/09/04 15:55:16;;;;;;;1.70;1.60;;;23.40;89.20;;;;;;10449872;28;20218;-86
2023/09/04 16:00:18;;;;;;;2.95;1.70;;;23.30;90.60;;;;;;10447840;28;20242;-86
2023/09/04 16:05:21;;;;;;;4.15;2.17;;;23.30;90.40;;;;;;10448850;28;20300;-85
2023/09/04 16:10:24;;;;;;;1.77;1.50;;;23.40;90.70;;;;;;10450114;28;20278;-87
2023/09/04 16:15:26;;;;;;;3.25;2.15;;;23.40;91.00;;;;;;10448135;28;20234;-86
2023/09/04 16:20:29;;;;;;;3.03;1.95;;;23.30;91.10;;;;;;10447800;28;20211;-86
2023/09/04 16:25:31;;;;;;;3.08;2.20;;;23.20;90.90;;;;;;10447529;28;20227;-86
2023/09/04 16:30:34;;;;;;;25.67;7.55;;;23.00;90.40;;;;;;10434143;28;20316;-86
2023/09/04 16:35:42;;;;;;;216.77;53.40;;;22.80;92.60;;;;;;10449245;28;20676;-87
2023/09/04 16:40:45;;;;;;;48.08;17.38;;;22.40;95.40;;;;;;10449311;28;20300;-87
2023/09/04 16:45:48;;;;;;;8.82;3.05;;;22.20;97.40;;;;;;10473820;28;20295;-86
2023/09/04 16:50:56;;;;;;;10.52;7.85;;;22.00;99.00;;;;;;10489412;28;20320;-86
2023/09/04 16:55:59;;;;;;;17.77;15.75;;;21.80;99.90;;;;;;10489115;28;20228;-86
2023/09/04 17:01:02;;;;;;;10.30;7.68;;;21.50;99.90;;;;;;10418704;28;20269;-86
2023/09/04 17:06:05;;;;;;;46.50;32.83;;;21.30;99.90;;;;;;10407857;28;20280;-87
2023/09/04 17:11:07;;;;;;;25.70;16.77;;;21.10;99.90;;;;;;10421221;28;20257;-85
2023/09/04 17:16:10;;;;;;;556.00;172.27;;;20.80;99.90;;;;;;10471146;28;20324;-86
2023/09/04 17:21:13;;;;;;;36.35;20.50;;;20.50;99.90;;;;;;10455221;28;20242;-86
2023/09/04 17:26:15;;;;;;;18.30;5.68;;;20.50;99.90;;;;;;10456559;28;20637;-86
2023/09/04 17:31:18;;;;;;;11.80;4.15;;;20.40;99.90;;;;;;10479027;28;20277;-86
2023/09/04 17:36:20;;;;;;;8.88;3.63;;;20.40;99.90;;;;;;10496975;28;20230;-86
2023/09/04 17:41:23;;;;;;;8.95;2.92;;;20.30;99.90;;;;;;10495754;28;20241;-86
2023/09/04 17:46:26;;;;;;;6.43;2.75;;;20.30;99.90;;;;;;10469059;28;20604;-86
2023/09/04 17:51:28;;;;;;;7.78;3.20;;;20.30;99.90;;;;;;10455306;28;20255;-87
2023/09/04 17:56:31;;;;;;;21.67;4.80;;;20.30;99.90;;;;;;10449177;28;20239;-87
2023/09/04 18:01:33;;;;;;;16.58;4.50;;;20.20;99.90;;;;;;10442958;28;20273;-87
2023/09/04 18:06:36;;;;;;;20.85;6.03;;;20.00;99.90;;;;;;10453466;28;20231;-87
2023/09/04 18:11:39;;;;;;;17.60;5.55;;;19.90;99.90;;;;;;10452982;28;20258;-86
2023/09/04 18:16:41;;;;;;;13.63;4.78;;;19.90;99.90;;;;;;10102796;28;10000526;-86
2023/09/04 18:21:44;;;;;;;17.45;4.05;;;19.90;99.90;;;;;;10448340;28;20243;-85
2023/09/04 18:26:46;;;;;;;12.02;4.38;;;19.90;99.90;;;;;;10445969;28;20304;-87
2023/09/04 18:31:49;;;;;;;9.90;3.83;;;20.00;99.90;;;;;;10431294;28;20320;-86
2023/09/04 18:36:52;;;;;;;10.90;3.67;;;19.90;99.90;;;;;;10450357;28;20288;-86
2023/09/04 18:41:54;;;;;;;4.80;3.05;;;19.90;99.90;;;;;;10448706;28;20243;-86
2023/09/04 18:46:56;;;;;;;6.70;3.28;;;20.00;99.90;;;;;;10448910;28;20292;-86
2023/09/04 18:51:59;;;;;;;8.18;3.28;;;19.90;99.90;;;;;;10429943;28;20381;-86
2023/09/04 18:57:02;;;;;;;7.93;3.13;;;19.90;99.90;;;;;;10439503;28;20231;-86
2023/09/04 19:02:04;;;;;;;9.10;3.33;;;19.80;99.90;;;;;;10449637;28;20655;-87
2023/09/04 19:07:07;;;;;;;11.52;3.20;;;19.70;99.90;;;;;;10459713;28;20231;-86
2023/09/04 19:12:10;;;;;;;7.28;3.83;;;19.70;99.90;;;;;;10453419;28;20653;-86
2023/09/04 19:17:14;;;;;;;11.77;4.03;;;19.70;99.90;;;;;;10431035;28;20230;-86
2023/09/04 19:22:17;;;;;;;17.45;4.32;;;19.60;99.90;;;;;;10448236;28;20238;-86
2023/09/04 19:27:23;;;;;;;7.45;3.92;;;19.50;99.90;;;;;;10452253;28;20203;-87
2023/09/04 19:32:28;;;;;;;14.45;4.45;;;19.30;99.90;;;;;;10452886;28;20285;-87
2023/09/04 19:37:31;;;;;;;6.90;3.75;;;19.20;99.90;;;;;;10464438;28;20249;-87
2023/09/04 19:42:34;;;;;;;15.07;4.63;;;19.00;99.90;;;;;;10437982;28;20191;-86
2023/09/04 19:47:36;;;;;;;13.20;4.25;;;18.90;99.90;;;;;;10450316;28;20343;-87
2023/09/04 19:52:39;;;;;;;10.25;4.45;;;18.80;99.90;;;;;;10466834;28;20704;-86
2023/09/04 19:57:41;;;;;;;14.65;4.85;;;18.70;99.90;;;;;;10464685;28;20204;-87
2023/09/04 20:02:45;;;;;;;10.95;3.75;;;18.60;99.90;;;;;;10499415;28;20206;-87
2023/09/04 20:07:48;;;;;;;11.23;4.38;;;18.50;99.90;;;;;;10448822;28;20266;-87
2023/09/04 20:12:50;;;;;;;8.10;4.38;;;18.50;99.90;;;;;;10482897;28;20394;-87
2023/09/04 20:17:53;;;;;;;8.32;4.13;;;18.60;99.90;;;;;;10457700;28;20218;-87
2023/09/04 20:22:56;;;;;;;16.38;5.30;;;18.70;99.90;;;;;;10489313;28;20687;-86
2023/09/04 20:27:59;;;;;;;10.85;5.47;;;18.70;99.90;;;;;;10452421;28;20239;-87
2023/09/04 20:33:02;;;;;;;7.95;3.17;;;18.70;99.90;;;;;;10432492;28;20634;-87
2023/09/04 20:38:05;;;;;;;7.38;3.70;;;18.80;99.90;;;;;;10434544;28;20239;-87
2023/09/04 20:43:07;;;;;;;9.55;4.63;;;18.90;99.90;;;;;;10407428;28;20675;-87
2023/09/04 20:48:10;;;;;;;4.93;3.58;;;18.90;99.90;;;;;;10425036;28;20238;-87
2023/09/04 20:53:12;;;;;;;6.38;4.40;;;18.90;99.90;;;;;;10436520;28;20325;-87
2023/09/04 20:58:16;;;;;;;7.90;5.15;;;18.90;99.90;;;;;;10440062;28;20230;-87
2023/09/04 21:03:19;;;;;;;10.07;5.10;;;18.90;99.90;;;;;;10431833;28;20231;-87
2023/09/04 23:21:58;;;;;;;10.02;4.97;;;17.20;99.90;;;;;;10438971;28;20264;-85
2023/09/04 23:27:04;;;;;;;8.43;4.93;;;17.10;99.90;;;;;;10439711;28;20230;-84
2023/09/04 23:32:09;;;;;;;4.22;3.35;;;17.10;99.90;;;;;;10432018;28;20250;-85
2023/09/04 23:37:15;;;;;;;8.93;5.38;;;17.00;99.90;;;;;;10430636;28;20297;-85
2023/09/04 23:47:46;;;;;;;8.23;5.43;;;17.10;99.90;;;;;;10433631;28;20295;-85
2023/09/04 23:52:54;;;;;;;5.35;3.10;;;17.20;99.90;;;;;;10417402;28;20305;-85
2023/09/04 23:57:57;;;;;;;5.25;4.68;;;17.30;99.90;;;;;;10449361;28;20624;-84
